sensor_id;sensor_type;location;lat;lon;timestamp;P1;durP1;ratioP1;P2;durP2;ratioP2
12535;SDS011;6334;48.696;2.114;2022-08-21T00:02:00;6.23;;;3.63;;
12535;SDS011;6334;48.696;2.114;2022-08-21T00:04:31;7.60;;;3.77;;
12535;SDS011;6334;48.696;2.114;2022-08-21T00:07:01;7.10;;;3.80;;
12535;SDS011;6334;48.696;2.114;2022-08-21T00:09:32;7.43;;;3.60;;
12535;SDS011;6334;48.696;2.114;2022-08-21T00:12:02;7.23;;;4.03;;
12535;SDS011;6334;48.696;2.114;2022-08-21T00:14:33;7.87;;;4.10;;
12535;SDS011;6334;48.696;2.114;2022-08-21T00:17:04;5.70;;;3.77;;
12535;SDS011;6334;48.696;2.114;2022-08-21T00:19:34;6.93;;;3.90;;
12535;SDS011;6334;48.696;2.114;2022-08-21T00:22:04;3.87;;;3.40;;
12535;SDS011;6334;48.696;2.114;2022-08-21T00:24:35;9.10;;;4.00;;
12535;SDS011;6334;48.696;2.114;2022-08-21T00:27:05;6.77;;;3.60;;
12535;SDS011;6334;48.696;2.114;2022-08-21T00:29:36;6.87;;;3.80;;
12535;SDS011;6334;48.696;2.114;2022-08-21T00:32:06;8.13;;;3.87;;
12535;SDS011;6334;48.696;2.114;2022-08-21T00:34:36;4.53;;;3.37;;
12535;SDS011;6334;48.696;2.114;2022-08-21T00:37:07;5.87;;;3.57;;
12535;SDS011;6334;48.696;2.114;2022-08-21T00:39:37;4.30;;;3.73;;
12535;SDS011;6334;48.696;2.114;2022-08-21T00:42:08;5.97;;;3.80;;
12535;SDS011;6334;48.696;2.114;2022-08-21T00:44:38;7.00;;;4.07;;
12535;SDS011;6334;48.696;2.114;2022-08-21T00:47:11;8.97;;;3.63;;
12535;SDS011;6334;48.696;2.114;2022-08-21T00:49:42;7.10;;;3.90;;
12535;SDS011;6334;48.696;2.114;2022-08-21T00:52:16;5.17;;;3.67;;
12535;SDS011;6334;48.696;2.114;2022-08-21T00:54:43;4.47;;;3.23;;
12535;SDS011;6334;48.696;2.114;2022-08-21T00:57:15;5.00;;;3.50;;
12535;SDS011;6334;48.696;2.114;2022-08-21T00:59:45;7.43;;;3.40;;
12535;SDS011;6334;48.696;2.114;2022-08-21T01:02:15;5.90;;;3.23;;
12535;SDS011;6334;48.696;2.114;2022-08-21T01:04:45;4.90;;;3.67;;
12535;SDS011;6334;48.696;2.114;2022-08-21T01:07:15;4.80;;;3.87;;
12535;SDS011;6334;48.696;2.114;2022-08-21T01:09:46;7.03;;;3.67;;
12535;SDS011;6334;48.696;2.114;2022-08-21T01:12:16;7.10;;;3.70;;
12535;SDS011;6334;48.696;2.114;2022-08-21T01:14:46;7.50;;;3.60;;
12535;SDS011;6334;48.696;2.114;2022-08-21T01:17:17;8.17;;;4.00;;
12535;SDS011;6334;48.696;2.114;2022-08-21T01:19:47;6.07;;;3.73;;
12535;SDS011;6334;48.696;2.114;2022-08-21T01:22:18;7.30;;;3.67;;
12535;SDS011;6334;48.696;2.114;2022-08-21T01:24:48;6.50;;;3.77;;
12535;SDS011;6334;48.696;2.114;2022-08-21T01:27:19;7.20;;;3.93;;
12535;SDS011;6334;48.696;2.114;2022-08-21T01:30:01;7.43;;;3.77;;
12535;SDS011;6334;48.696;2.114;2022-08-21T01:32:28;6.67;;;3.70;;
12535;SDS011;6334;48.696;2.114;2022-08-21T01:34:59;6.00;;;4.10;;
12535;SDS011;6334;48.696;2.114;2022-08-21T01:37:29;8.27;;;4.27;;
12535;SDS011;6334;48.696;2.114;2022-08-21T01:40:00;5.50;;;3.73;;
12535;SDS011;6334;48.696;2.114;2022-08-21T01:42:30;6.80;;;3.97;;
12535;SDS011;6334;48.696;2.114;2022-08-21T01:45:00;5.37;;;3.77;;
12535;SDS011;6334;48.696;2.114;2022-08-21T01:47:31;7.30;;;4.33;;
12535;SDS011;6334;48.696;2.114;2022-08-21T01:50:04;6.20;;;3.97;;
12535;SDS011;6334;48.696;2.114;2022-08-21T01:52:32;6.67;;;3.90;;
12535;SDS011;6334;48.696;2.114;2022-08-21T01:55:03;7.13;;;3.67;;
12535;SDS011;6334;48.696;2.114;2022-08-21T01:57:33;7.43;;;4.00;;
12535;SDS011;6334;48.696;2.114;2022-08-21T02:00:04;9.13;;;4.47;;
12535;SDS011;6334;48.696;2.114;2022-08-21T02:02:34;4.80;;;3.70;;
12535;SDS011;6334;48.696;2.114;2022-08-21T02:05:04;6.00;;;3.83;;
12535;SDS011;6334;48.696;2.114;2022-08-21T02:07:36;7.43;;;3.83;;
12535;SDS011;6334;48.696;2.114;2022-08-21T02:10:06;6.37;;;4.00;;
12535;SDS011;6334;48.696;2.114;2022-08-21T02:12:35;6.60;;;3.80;;
12535;SDS011;6334;48.696;2.114;2022-08-21T02:15:06;5.03;;;3.57;;
12535;SDS011;6334;48.696;2.114;2022-08-21T02:17:40;6.47;;;3.53;;
12535;SDS011;6334;48.696;2.114;2022-08-21T02:20:15;5.73;;;4.00;;
12535;SDS011;6334;48.696;2.114;2022-08-21T02:22:43;8.87;;;3.80;;
12535;SDS011;6334;48.696;2.114;2022-08-21T02:25:13;6.50;;;3.50;;
12535;SDS011;6334;48.696;2.114;2022-08-21T02:27:44;6.33;;;3.60;;
12535;SDS011;6334;48.696;2.114;2022-08-21T02:30:17;6.03;;;3.80;;
12535;SDS011;6334;48.696;2.114;2022-08-21T02:32:44;6.57;;;3.97;;
12535;SDS011;6334;48.696;2.114;2022-08-21T02:35:15;5.70;;;3.80;;
12535;SDS011;6334;48.696;2.114;2022-08-21T02:37:46;8.90;;;3.70;;
12535;SDS011;6334;48.696;2.114;2022-08-21T02:40:16;6.07;;;4.00;;
12535;SDS011;6334;48.696;2.114;2022-08-21T02:42:46;5.27;;;3.50;;
12535;SDS011;6334;48.696;2.114;2022-08-21T02:45:17;4.97;;;3.63;;
12535;SDS011;6334;48.696;2.114;2022-08-21T02:47:53;7.40;;;4.07;;
12535;SDS011;6334;48.696;2.114;2022-08-21T02:50:21;9.80;;;4.87;;
12535;SDS011;6334;48.696;2.114;2022-08-21T02:52:51;6.33;;;3.97;;
12535;SDS011;6334;48.696;2.114;2022-08-21T02:55:25;8.17;;;4.13;;
12535;SDS011;6334;48.696;2.114;2022-08-21T02:57:54;7.83;;;3.90;;
12535;SDS011;6334;48.696;2.114;2022-08-21T03:00:26;7.50;;;3.83;;
12535;SDS011;6334;48.696;2.114;2022-08-21T03:02:55;9.27;;;3.90;;
12535;SDS011;6334;48.696;2.114;2022-08-21T03:05:27;7.30;;;3.80;;
12535;SDS011;6334;48.696;2.114;2022-08-21T03:07:56;7.27;;;3.80;;
12535;SDS011;6334;48.696;2.114;2022-08-21T03:10:26;8.20;;;3.97;;
12535;SDS011;6334;48.696;2.114;2022-08-21T03:12:57;6.57;;;4.10;;
12535;SDS011;6334;48.696;2.114;2022-08-21T03:15:27;5.13;;;3.57;;
12535;SDS011;6334;48.696;2.114;2022-08-21T03:17:58;4.90;;;3.57;;
12535;SDS011;6334;48.696;2.114;2022-08-21T03:20:28;8.07;;;4.07;;
12535;SDS011;6334;48.696;2.114;2022-08-21T03:22:59;5.43;;;3.93;;
12535;SDS011;6334;48.696;2.114;2022-08-21T03:25:29;6.07;;;3.90;;
12535;SDS011;6334;48.696;2.114;2022-08-21T03:28:00;6.73;;;3.73;;
12535;SDS011;6334;48.696;2.114;2022-08-21T03:30:30;6.03;;;3.80;;
12535;SDS011;6334;48.696;2.114;2022-08-21T03:33:01;7.47;;;3.57;;
12535;SDS011;6334;48.696;2.114;2022-08-21T03:35:31;7.63;;;3.77;;
12535;SDS011;6334;48.696;2.114;2022-08-21T03:38:01;6.23;;;3.83;;
12535;SDS011;6334;48.696;2.114;2022-08-21T03:40:32;5.97;;;3.60;;
12535;SDS011;6334;48.696;2.114;2022-08-21T03:43:02;4.40;;;3.83;;
12535;SDS011;6334;48.696;2.114;2022-08-21T03:45:33;5.93;;;3.80;;
12535;SDS011;6334;48.696;2.114;2022-08-21T03:48:04;5.63;;;3.40;;
12535;SDS011;6334;48.696;2.114;2022-08-21T03:50:36;4.63;;;3.70;;
12535;SDS011;6334;48.696;2.114;2022-08-21T03:53:04;7.27;;;3.80;;
12535;SDS011;6334;48.696;2.114;2022-08-21T03:55:35;9.63;;;4.00;;
12535;SDS011;6334;48.696;2.114;2022-08-21T03:58:05;5.70;;;3.83;;
12535;SDS011;6334;48.696;2.114;2022-08-21T04:00:36;8.27;;;3.93;;
12535;SDS011;6334;48.696;2.114;2022-08-21T04:03:06;5.80;;;3.50;;
12535;SDS011;6334;48.696;2.114;2022-08-21T04:05:36;5.40;;;3.70;;
12535;SDS011;6334;48.696;2.114;2022-08-21T04:08:07;5.63;;;3.57;;
12535;SDS011;6334;48.696;2.114;2022-08-21T04:10:38;4.80;;;4.03;;
12535;SDS011;6334;48.696;2.114;2022-08-21T04:13:08;4.67;;;3.30;;
12535;SDS011;6334;48.696;2.114;2022-08-21T04:15:38;8.37;;;3.80;;
12535;SDS011;6334;48.696;2.114;2022-08-21T04:18:09;5.93;;;3.43;;
12535;SDS011;6334;48.696;2.114;2022-08-21T04:20:39;5.20;;;3.30;;
12535;SDS011;6334;48.696;2.114;2022-08-21T04:23:10;4.87;;;3.43;;
12535;SDS011;6334;48.696;2.114;2022-08-21T04:25:40;7.70;;;3.77;;
12535;SDS011;6334;48.696;2.114;2022-08-21T04:28:11;7.70;;;3.73;;
12535;SDS011;6334;48.696;2.114;2022-08-21T04:30:41;4.73;;;3.53;;
12535;SDS011;6334;48.696;2.114;2022-08-21T04:33:11;5.87;;;3.70;;
12535;SDS011;6334;48.696;2.114;2022-08-21T04:35:42;5.67;;;3.60;;
12535;SDS011;6334;48.696;2.114;2022-08-21T04:38:12;5.17;;;3.40;;
12535;SDS011;6334;48.696;2.114;2022-08-21T04:40:43;4.87;;;3.33;;
12535;SDS011;6334;48.696;2.114;2022-08-21T04:43:13;7.43;;;3.60;;
12535;SDS011;6334;48.696;2.114;2022-08-21T04:45:44;4.67;;;3.30;;
12535;SDS011;6334;48.696;2.114;2022-08-21T04:48:15;4.37;;;3.23;;
12535;SDS011;6334;48.696;2.114;2022-08-21T04:50:49;4.97;;;3.30;;
12535;SDS011;6334;48.696;2.114;2022-08-21T04:53:22;7.40;;;3.90;;
12535;SDS011;6334;48.696;2.114;2022-08-21T04:55:51;5.87;;;3.30;;
12535;SDS011;6334;48.696;2.114;2022-08-21T04:58:21;8.27;;;4.33;;
12535;SDS011;6334;48.696;2.114;2022-08-21T05:00:52;9.23;;;4.23;;
12535;SDS011;6334;48.696;2.114;2022-08-21T05:03:22;6.00;;;3.70;;
12535;SDS011;6334;48.696;2.114;2022-08-21T05:05:53;6.20;;;4.03;;
12535;SDS011;6334;48.696;2.114;2022-08-21T05:08:23;5.10;;;3.63;;
12535;SDS011;6334;48.696;2.114;2022-08-21T05:10:54;6.00;;;3.80;;
12535;SDS011;6334;48.696;2.114;2022-08-21T05:13:24;7.20;;;3.90;;
12535;SDS011;6334;48.696;2.114;2022-08-21T05:15:54;5.27;;;3.83;;
12535;SDS011;6334;48.696;2.114;2022-08-21T05:18:25;5.57;;;3.57;;
12535;SDS011;6334;48.696;2.114;2022-08-21T05:20:55;5.07;;;3.43;;
12535;SDS011;6334;48.696;2.114;2022-08-21T05:23:26;6.67;;;3.63;;
12535;SDS011;6334;48.696;2.114;2022-08-21T05:25:56;3.87;;;3.03;;
12535;SDS011;6334;48.696;2.114;2022-08-21T05:28:27;7.00;;;3.77;;
12535;SDS011;6334;48.696;2.114;2022-08-21T05:30:57;5.17;;;3.27;;
12535;SDS011;6334;48.696;2.114;2022-08-21T05:33:28;3.97;;;3.30;;
12535;SDS011;6334;48.696;2.114;2022-08-21T05:35:58;6.33;;;3.80;;
12535;SDS011;6334;48.696;2.114;2022-08-21T05:38:28;4.60;;;3.70;;
12535;SDS011;6334;48.696;2.114;2022-08-21T05:40:59;6.17;;;3.50;;
12535;SDS011;6334;48.696;2.114;2022-08-21T05:43:29;6.40;;;3.53;;
12535;SDS011;6334;48.696;2.114;2022-08-21T05:46:00;3.63;;;3.30;;
12535;SDS011;6334;48.696;2.114;2022-08-21T05:48:30;5.67;;;3.70;;
12535;SDS011;6334;48.696;2.114;2022-08-21T05:51:05;4.60;;;3.37;;
12535;SDS011;6334;48.696;2.114;2022-08-21T05:53:40;7.50;;;3.50;;
12535;SDS011;6334;48.696;2.114;2022-08-21T05:56:11;5.73;;;3.43;;
12535;SDS011;6334;48.696;2.114;2022-08-21T05:58:41;6.73;;;3.70;;
12535;SDS011;6334;48.696;2.114;2022-08-21T06:01:11;5.53;;;4.00;;
12535;SDS011;6334;48.696;2.114;2022-08-21T06:03:42;4.90;;;3.63;;
12535;SDS011;6334;48.696;2.114;2022-08-21T06:06:12;5.97;;;4.20;;
12535;SDS011;6334;48.696;2.114;2022-08-21T06:08:42;4.30;;;3.70;;
12535;SDS011;6334;48.696;2.114;2022-08-21T06:11:13;6.63;;;3.60;;
12535;SDS011;6334;48.696;2.114;2022-08-21T06:13:43;5.27;;;3.70;;
12535;SDS011;6334;48.696;2.114;2022-08-21T06:16:15;3.87;;;3.47;;
12535;SDS011;6334;48.696;2.114;2022-08-21T06:18:44;4.77;;;3.60;;
12535;SDS011;6334;48.696;2.114;2022-08-21T06:21:15;5.90;;;4.00;;
12535;SDS011;6334;48.696;2.114;2022-08-21T06:23:45;4.73;;;3.27;;
12535;SDS011;6334;48.696;2.114;2022-08-21T06:26:16;5.23;;;3.33;;
12535;SDS011;6334;48.696;2.114;2022-08-21T06:28:46;8.60;;;3.80;;
12535;SDS011;6334;48.696;2.114;2022-08-21T06:31:21;8.23;;;3.70;;
12535;SDS011;6334;48.696;2.114;2022-08-21T06:33:50;4.97;;;3.60;;
12535;SDS011;6334;48.696;2.114;2022-08-21T06:36:20;6.33;;;3.57;;
12535;SDS011;6334;48.696;2.114;2022-08-21T06:38:51;8.80;;;4.23;;
12535;SDS011;6334;48.696;2.114;2022-08-21T06:41:21;6.37;;;3.43;;
12535;SDS011;6334;48.696;2.114;2022-08-21T06:43:52;6.27;;;3.57;;
12535;SDS011;6334;48.696;2.114;2022-08-21T06:46:23;5.70;;;3.60;;
12535;SDS011;6334;48.696;2.114;2022-08-21T06:48:52;4.80;;;3.33;;
12535;SDS011;6334;48.696;2.114;2022-08-21T06:51:23;7.37;;;3.83;;
12535;SDS011;6334;48.696;2.114;2022-08-21T06:53:53;6.67;;;3.60;;
12535;SDS011;6334;48.696;2.114;2022-08-21T06:56:24;6.50;;;3.30;;
12535;SDS011;6334;48.696;2.114;2022-08-21T06:58:54;6.50;;;3.40;;
12535;SDS011;6334;48.696;2.114;2022-08-21T07:01:25;5.80;;;3.27;;
12535;SDS011;6334;48.696;2.114;2022-08-21T07:03:55;7.77;;;4.00;;
12535;SDS011;6334;48.696;2.114;2022-08-21T07:06:26;6.60;;;3.80;;
12535;SDS011;6334;48.696;2.114;2022-08-21T07:08:56;4.93;;;3.40;;
12535;SDS011;6334;48.696;2.114;2022-08-21T07:11:27;5.93;;;3.43;;
12535;SDS011;6334;48.696;2.114;2022-08-21T07:13:57;5.87;;;3.40;;
12535;SDS011;6334;48.696;2.114;2022-08-21T07:16:27;6.00;;;3.47;;
12535;SDS011;6334;48.696;2.114;2022-08-21T07:18:58;4.33;;;3.60;;
12535;SDS011;6334;48.696;2.114;2022-08-21T07:21:28;5.30;;;3.80;;
12535;SDS011;6334;48.696;2.114;2022-08-21T07:23:59;6.40;;;3.53;;
12535;SDS011;6334;48.696;2.114;2022-08-21T07:26:29;5.37;;;3.63;;
12535;SDS011;6334;48.696;2.114;2022-08-21T07:29:00;5.03;;;3.80;;
12535;SDS011;6334;48.696;2.114;2022-08-21T07:31:30;5.83;;;3.80;;
12535;SDS011;6334;48.696;2.114;2022-08-21T07:34:01;7.57;;;3.90;;
12535;SDS011;6334;48.696;2.114;2022-08-21T07:36:31;5.67;;;3.50;;
12535;SDS011;6334;48.696;2.114;2022-08-21T07:39:02;6.30;;;3.73;;
12535;SDS011;6334;48.696;2.114;2022-08-21T07:41:32;4.00;;;3.50;;
12535;SDS011;6334;48.696;2.114;2022-08-21T07:44:02;6.27;;;3.67;;
12535;SDS011;6334;48.696;2.114;2022-08-21T07:46:33;5.90;;;3.10;;
12535;SDS011;6334;48.696;2.114;2022-08-21T07:49:03;7.70;;;3.67;;
12535;SDS011;6334;48.696;2.114;2022-08-21T07:51:34;5.63;;;3.17;;
12535;SDS011;6334;48.696;2.114;2022-08-21T07:54:04;6.23;;;3.70;;
12535;SDS011;6334;48.696;2.114;2022-08-21T07:56:35;5.17;;;3.37;;
12535;SDS011;6334;48.696;2.114;2022-08-21T07:59:05;8.00;;;3.83;;
12535;SDS011;6334;48.696;2.114;2022-08-21T08:01:36;4.60;;;3.50;;
12535;SDS011;6334;48.696;2.114;2022-08-21T08:04:06;5.90;;;3.23;;
12535;SDS011;6334;48.696;2.114;2022-08-21T08:06:37;6.17;;;3.27;;
12535;SDS011;6334;48.696;2.114;2022-08-21T08:09:07;10.30;;;3.60;;
12535;SDS011;6334;48.696;2.114;2022-08-21T08:11:38;9.07;;;3.53;;
12535;SDS011;6334;48.696;2.114;2022-08-21T08:14:08;7.03;;;3.67;;
12535;SDS011;6334;48.696;2.114;2022-08-21T08:16:38;5.80;;;3.43;;
12535;SDS011;6334;48.696;2.114;2022-08-21T08:19:09;6.57;;;3.63;;
12535;SDS011;6334;48.696;2.114;2022-08-21T08:21:39;6.93;;;3.60;;
12535;SDS011;6334;48.696;2.114;2022-08-21T08:24:10;5.77;;;3.40;;
12535;SDS011;6334;48.696;2.114;2022-08-21T08:26:40;4.40;;;3.40;;
12535;SDS011;6334;48.696;2.114;2022-08-21T08:29:11;5.73;;;3.33;;
12535;SDS011;6334;48.696;2.114;2022-08-21T08:31:41;7.77;;;3.50;;
12535;SDS011;6334;48.696;2.114;2022-08-21T08:34:12;4.20;;;3.27;;
12535;SDS011;6334;48.696;2.114;2022-08-21T08:36:42;5.30;;;3.00;;
12535;SDS011;6334;48.696;2.114;2022-08-21T08:39:13;7.00;;;3.13;;
12535;SDS011;6334;48.696;2.114;2022-08-21T08:41:43;8.53;;;3.63;;
12535;SDS011;6334;48.696;2.114;2022-08-21T08:44:13;7.27;;;3.67;;
12535;SDS011;6334;48.696;2.114;2022-08-21T08:46:44;4.07;;;3.30;;
12535;SDS011;6334;48.696;2.114;2022-08-21T08:49:19;4.43;;;3.40;;
12535;SDS011;6334;48.696;2.114;2022-08-21T08:51:54;5.73;;;3.40;;
12535;SDS011;6334;48.696;2.114;2022-08-21T08:54:26;5.70;;;3.23;;
12535;SDS011;6334;48.696;2.114;2022-08-21T08:56:54;7.23;;;3.30;;
12535;SDS011;6334;48.696;2.114;2022-08-21T08:59:32;8.33;;;4.00;;
12535;SDS011;6334;48.696;2.114;2022-08-21T09:01:57;4.57;;;3.13;;
12535;SDS011;6334;48.696;2.114;2022-08-21T09:04:28;6.67;;;3.13;;
12535;SDS011;6334;48.696;2.114;2022-08-21T09:07:06;5.50;;;3.10;;
12535;SDS011;6334;48.696;2.114;2022-08-21T09:17:37;5.43;;;2.90;;
12535;SDS011;6334;48.696;2.114;2022-08-21T09:20:19;6.77;;;3.10;;
12535;SDS011;6334;48.696;2.114;2022-08-21T09:22:50;7.33;;;3.40;;
12535;SDS011;6334;48.696;2.114;2022-08-21T09:25:24;4.43;;;3.00;;
12535;SDS011;6334;48.696;2.114;2022-08-21T09:27:50;7.70;;;3.30;;
12535;SDS011;6334;48.696;2.114;2022-08-21T09:30:24;9.63;;;3.60;;
12535;SDS011;6334;48.696;2.114;2022-08-21T09:32:51;6.80;;;3.07;;
12535;SDS011;6334;48.696;2.114;2022-08-21T09:35:22;5.17;;;2.93;;
12535;SDS011;6334;48.696;2.114;2022-08-21T09:45:47;5.27;;;3.30;;
12535;SDS011;6334;48.696;2.114;2022-08-21T09:48:23;4.40;;;2.90;;
12535;SDS011;6334;48.696;2.114;2022-08-21T09:50:53;8.17;;;3.43;;
12535;SDS011;6334;48.696;2.114;2022-08-21T09:56:00;6.37;;;3.03;;
12535;SDS011;6334;48.696;2.114;2022-08-21T09:58:48;7.77;;;3.17;;
12535;SDS011;6334;48.696;2.114;2022-08-21T10:01:22;6.47;;;3.10;;
12535;SDS011;6334;48.696;2.114;2022-08-21T10:04:09;4.83;;;2.83;;
12535;SDS011;6334;48.696;2.114;2022-08-21T10:06:38;5.00;;;3.10;;
12535;SDS011;6334;48.696;2.114;2022-08-21T10:09:10;11.10;;;3.33;;
12535;SDS011;6334;48.696;2.114;2022-08-21T10:11:40;5.73;;;3.17;;
12535;SDS011;6334;48.696;2.114;2022-08-21T10:14:18;3.10;;;2.50;;
12535;SDS011;6334;48.696;2.114;2022-08-21T10:20:17;4.67;;;2.80;;
12535;SDS011;6334;48.696;2.114;2022-08-21T10:25:21;4.20;;;2.90;;
12535;SDS011;6334;48.696;2.114;2022-08-21T10:28:02;3.87;;;2.37;;
12535;SDS011;6334;48.696;2.114;2022-08-21T10:33:28;3.37;;;2.70;;
12535;SDS011;6334;48.696;2.114;2022-08-21T10:38:47;5.57;;;2.90;;
12535;SDS011;6334;48.696;2.114;2022-08-21T10:41:27;3.30;;;2.50;;
12535;SDS011;6334;48.696;2.114;2022-08-21T10:44:16;3.13;;;2.50;;
12535;SDS011;6334;48.696;2.114;2022-08-21T10:47:08;3.73;;;2.37;;
12535;SDS011;6334;48.696;2.114;2022-08-21T10:49:47;7.80;;;2.57;;
12535;SDS011;6334;48.696;2.114;2022-08-21T10:52:27;4.77;;;2.87;;
12535;SDS011;6334;48.696;2.114;2022-08-21T10:55:04;7.00;;;3.00;;
12535;SDS011;6334;48.696;2.114;2022-08-21T10:57:42;4.17;;;2.90;;
12535;SDS011;6334;48.696;2.114;2022-08-21T11:00:15;5.27;;;2.63;;
12535;SDS011;6334;48.696;2.114;2022-08-21T11:08:23;2.57;;;2.20;;
12535;SDS011;6334;48.696;2.114;2022-08-21T11:11:04;2.20;;;1.90;;
12535;SDS011;6334;48.696;2.114;2022-08-21T11:13:37;3.27;;;2.03;;
12535;SDS011;6334;48.696;2.114;2022-08-21T11:18:49;4.50;;;2.57;;
12535;SDS011;6334;48.696;2.114;2022-08-21T11:21:24;5.20;;;2.73;;
12535;SDS011;6334;48.696;2.114;2022-08-21T11:27:06;2.87;;;2.27;;
12535;SDS011;6334;48.696;2.114;2022-08-21T11:29:40;4.40;;;2.40;;
12535;SDS011;6334;48.696;2.114;2022-08-21T11:35:03;2.83;;;2.10;;
12535;SDS011;6334;48.696;2.114;2022-08-21T11:45:51;2.60;;;2.20;;
12535;SDS011;6334;48.696;2.114;2022-08-21T11:51:36;4.00;;;2.60;;
12535;SDS011;6334;48.696;2.114;2022-08-21T11:57:08;2.87;;;1.87;;
12535;SDS011;6334;48.696;2.114;2022-08-21T11:59:45;2.27;;;2.07;;
12535;SDS011;6334;48.696;2.114;2022-08-21T12:02:21;3.97;;;2.37;;
12535;SDS011;6334;48.696;2.114;2022-08-21T12:04:53;4.53;;;3.77;;
12535;SDS011;6334;48.696;2.114;2022-08-21T12:07:31;2.57;;;2.37;;
12535;SDS011;6334;48.696;2.114;2022-08-21T12:10:14;4.03;;;2.20;;
12535;SDS011;6334;48.696;2.114;2022-08-21T12:12:41;1.77;;;1.67;;
12535;SDS011;6334;48.696;2.114;2022-08-21T12:15:24;2.83;;;2.17;;
12535;SDS011;6334;48.696;2.114;2022-08-21T12:18:07;1.97;;;1.60;;
12535;SDS011;6334;48.696;2.114;2022-08-21T12:24:03;3.63;;;1.80;;
12535;SDS011;6334;48.696;2.114;2022-08-21T12:26:55;1.83;;;1.73;;
12535;SDS011;6334;48.696;2.114;2022-08-21T12:29:28;2.00;;;1.83;;
12535;SDS011;6334;48.696;2.114;2022-08-21T12:32:04;1.60;;;1.50;;
12535;SDS011;6334;48.696;2.114;2022-08-21T12:34:37;2.17;;;1.97;;
12535;SDS011;6334;48.696;2.114;2022-08-21T12:37:25;1.93;;;1.67;;
12535;SDS011;6334;48.696;2.114;2022-08-21T12:40:10;1.60;;;1.50;;
12535;SDS011;6334;48.696;2.114;2022-08-21T12:42:44;4.83;;;2.20;;
12535;SDS011;6334;48.696;2.114;2022-08-21T12:45:29;2.30;;;1.77;;
12535;SDS011;6334;48.696;2.114;2022-08-21T12:48:18;2.70;;;1.80;;
12535;SDS011;6334;48.696;2.114;2022-08-21T12:50:44;2.23;;;2.00;;
12535;SDS011;6334;48.696;2.114;2022-08-21T12:53:15;2.17;;;1.47;;
12535;SDS011;6334;48.696;2.114;2022-08-21T12:56:03;4.00;;;1.90;;
12535;SDS011;6334;48.696;2.114;2022-08-21T12:58:33;2.20;;;1.60;;
12535;SDS011;6334;48.696;2.114;2022-08-21T13:01:05;3.43;;;1.80;;
12535;SDS011;6334;48.696;2.114;2022-08-21T13:03:35;1.60;;;1.50;;
12535;SDS011;6334;48.696;2.114;2022-08-21T13:06:04;1.67;;;1.47;;
12535;SDS011;6334;48.696;2.114;2022-08-21T13:08:35;2.83;;;1.70;;
12535;SDS011;6334;48.696;2.114;2022-08-21T13:11:05;2.23;;;1.50;;
12535;SDS011;6334;48.696;2.114;2022-08-21T13:13:36;4.77;;;1.43;;
12535;SDS011;6334;48.696;2.114;2022-08-21T13:16:06;2.10;;;1.40;;
12535;SDS011;6334;48.696;2.114;2022-08-21T13:18:39;2.73;;;1.80;;
12535;SDS011;6334;48.696;2.114;2022-08-21T13:21:12;3.97;;;1.67;;
12535;SDS011;6334;48.696;2.114;2022-08-21T13:23:40;3.30;;;1.67;;
12535;SDS011;6334;48.696;2.114;2022-08-21T13:26:18;1.73;;;1.27;;
12535;SDS011;6334;48.696;2.114;2022-08-21T13:28:48;1.23;;;1.23;;
12535;SDS011;6334;48.696;2.114;2022-08-21T13:31:20;1.70;;;1.10;;
12535;SDS011;6334;48.696;2.114;2022-08-21T13:33:48;1.93;;;1.47;;
12535;SDS011;6334;48.696;2.114;2022-08-21T13:36:23;4.13;;;1.43;;
12535;SDS011;6334;48.696;2.114;2022-08-21T13:38:51;2.27;;;1.50;;
12535;SDS011;6334;48.696;2.114;2022-08-21T13:41:24;1.10;;;1.10;;
12535;SDS011;6334;48.696;2.114;2022-08-21T13:46:32;1.80;;;1.47;;
12535;SDS011;6334;48.696;2.114;2022-08-21T13:49:03;1.73;;;1.10;;
12535;SDS011;6334;48.696;2.114;2022-08-21T13:51:33;1.90;;;1.30;;
12535;SDS011;6334;48.696;2.114;2022-08-21T13:54:26;1.43;;;1.17;;
12535;SDS011;6334;48.696;2.114;2022-08-21T13:56:51;2.57;;;1.40;;
12535;SDS011;6334;48.696;2.114;2022-08-21T13:59:31;4.67;;;1.77;;
12535;SDS011;6334;48.696;2.114;2022-08-21T14:02:08;1.43;;;1.33;;
12535;SDS011;6334;48.696;2.114;2022-08-21T14:04:33;1.40;;;1.30;;
12535;SDS011;6334;48.696;2.114;2022-08-21T14:07:01;1.87;;;1.17;;
12535;SDS011;6334;48.696;2.114;2022-08-21T14:09:33;2.13;;;1.50;;
12535;SDS011;6334;48.696;2.114;2022-08-21T14:12:10;3.03;;;2.20;;
12535;SDS011;6334;48.696;2.114;2022-08-21T14:14:34;1.77;;;1.53;;
12535;SDS011;6334;48.696;2.114;2022-08-21T14:17:04;2.83;;;1.70;;
12535;SDS011;6334;48.696;2.114;2022-08-21T14:19:43;2.63;;;1.50;;
12535;SDS011;6334;48.696;2.114;2022-08-21T14:27:49;2.10;;;1.43;;
12535;SDS011;6334;48.696;2.114;2022-08-21T14:30:19;2.73;;;1.60;;
12535;SDS011;6334;48.696;2.114;2022-08-21T14:32:51;2.10;;;1.63;;
12535;SDS011;6334;48.696;2.114;2022-08-21T14:35:21;2.73;;;1.67;;
12535;SDS011;6334;48.696;2.114;2022-08-21T14:37:52;1.50;;;1.40;;
12535;SDS011;6334;48.696;2.114;2022-08-21T14:40:23;2.07;;;1.83;;
12535;SDS011;6334;48.696;2.114;2022-08-21T14:42:52;2.13;;;1.47;;
12535;SDS011;6334;48.696;2.114;2022-08-21T14:45:26;3.93;;;1.97;;
12535;SDS011;6334;48.696;2.114;2022-08-21T14:47:56;3.37;;;1.97;;
12535;SDS011;6334;48.696;2.114;2022-08-21T14:50:26;2.20;;;1.20;;
12535;SDS011;6334;48.696;2.114;2022-08-21T14:52:57;4.87;;;1.73;;
12535;SDS011;6334;48.696;2.114;2022-08-21T14:55:27;3.47;;;1.30;;
12535;SDS011;6334;48.696;2.114;2022-08-21T14:57:58;2.83;;;1.67;;
12535;SDS011;6334;48.696;2.114;2022-08-21T15:00:28;2.03;;;1.80;;
12535;SDS011;6334;48.696;2.114;2022-08-21T15:02:59;3.33;;;2.23;;
12535;SDS011;6334;48.696;2.114;2022-08-21T15:05:29;4.00;;;2.13;;
12535;SDS011;6334;48.696;2.114;2022-08-21T15:08:00;2.30;;;1.70;;
12535;SDS011;6334;48.696;2.114;2022-08-21T15:10:30;5.13;;;2.20;;
12535;SDS011;6334;48.696;2.114;2022-08-21T15:13:01;2.17;;;1.73;;
12535;SDS011;6334;48.696;2.114;2022-08-21T15:15:33;2.17;;;1.87;;
12535;SDS011;6334;48.696;2.114;2022-08-21T15:18:04;3.80;;;2.00;;
12535;SDS011;6334;48.696;2.114;2022-08-21T15:20:35;2.50;;;1.87;;
12535;SDS011;6334;48.696;2.114;2022-08-21T15:23:06;2.90;;;2.03;;
12535;SDS011;6334;48.696;2.114;2022-08-21T15:25:36;3.17;;;2.07;;
12535;SDS011;6334;48.696;2.114;2022-08-21T15:28:06;5.37;;;1.90;;
12535;SDS011;6334;48.696;2.114;2022-08-21T15:30:38;3.90;;;1.77;;
12535;SDS011;6334;48.696;2.114;2022-08-21T15:33:07;1.70;;;1.60;;
12535;SDS011;6334;48.696;2.114;2022-08-21T15:35:37;8.57;;;2.80;;
12535;SDS011;6334;48.696;2.114;2022-08-21T15:38:08;4.03;;;2.30;;
12535;SDS011;6334;48.696;2.114;2022-08-21T15:40:39;4.53;;;2.70;;
12535;SDS011;6334;48.696;2.114;2022-08-21T15:43:11;5.17;;;1.70;;
12535;SDS011;6334;48.696;2.114;2022-08-21T15:45:39;4.03;;;1.97;;
12535;SDS011;6334;48.696;2.114;2022-08-21T15:48:10;3.63;;;2.23;;
12535;SDS011;6334;48.696;2.114;2022-08-21T15:50:40;5.33;;;2.30;;
12535;SDS011;6334;48.696;2.114;2022-08-21T15:53:11;4.93;;;2.20;;
12535;SDS011;6334;48.696;2.114;2022-08-21T15:55:41;3.30;;;2.50;;
12535;SDS011;6334;48.696;2.114;2022-08-21T15:58:14;3.23;;;1.93;;
12535;SDS011;6334;48.696;2.114;2022-08-21T16:00:45;3.27;;;2.13;;
12535;SDS011;6334;48.696;2.114;2022-08-21T16:03:16;3.77;;;2.03;;
12535;SDS011;6334;48.696;2.114;2022-08-21T16:05:46;3.13;;;2.10;;
12535;SDS011;6334;48.696;2.114;2022-08-21T16:08:16;5.77;;;2.53;;
12535;SDS011;6334;48.696;2.114;2022-08-21T16:10:46;2.67;;;2.23;;
12535;SDS011;6334;48.696;2.114;2022-08-21T16:13:27;3.30;;;1.97;;
12535;SDS011;6334;48.696;2.114;2022-08-21T16:15:56;4.00;;;2.13;;
12535;SDS011;6334;48.696;2.114;2022-08-21T16:18:26;3.27;;;2.17;;
12535;SDS011;6334;48.696;2.114;2022-08-21T16:20:57;5.17;;;2.47;;
12535;SDS011;6334;48.696;2.114;2022-08-21T16:23:27;3.60;;;2.57;;
12535;SDS011;6334;48.696;2.114;2022-08-21T16:25:58;4.47;;;2.27;;
12535;SDS011;6334;48.696;2.114;2022-08-21T16:28:28;3.47;;;2.73;;
12535;SDS011;6334;48.696;2.114;2022-08-21T16:30:59;4.27;;;2.03;;
12535;SDS011;6334;48.696;2.114;2022-08-21T16:33:32;2.70;;;2.40;;
12535;SDS011;6334;48.696;2.114;2022-08-21T16:36:09;3.33;;;2.27;;
12535;SDS011;6334;48.696;2.114;2022-08-21T16:38:39;4.10;;;2.20;;